createdAt,value
2018-10-02T00:02:00.578Z,11.39
2018-10-02T00:04:29.432Z,11.36
2018-10-02T00:06:58.291Z,11.23
2018-10-02T00:09:27.123Z,11.46
2018-10-02T00:12:01.452Z,11.20
2018-10-02T00:14:31.602Z,11.03
2018-10-02T00:17:00.860Z,11.06
2018-10-02T00:19:29.690Z,10.88
2018-10-02T00:21:58.524Z,10.87
2018-10-02T00:24:27.873Z,10.79
2018-10-02T00:26:57.028Z,10.64
2018-10-02T00:29:26.810Z,10.83
2018-10-02T00:31:56.421Z,10.68
2018-10-02T00:34:25.901Z,10.63
2018-10-02T00:36:55.199Z,10.60
2018-10-02T00:39:25.208Z,10.54
2018-10-02T00:41:54.676Z,10.55
2018-10-02T00:44:23.848Z,10.64
2018-10-02T00:46:53.609Z,10.49
2018-10-02T00:49:22.893Z,10.40
2018-10-02T00:51:52.014Z,10.41
2018-10-02T00:54:21.101Z,10.51
2018-10-02T00:56:50.588Z,10.57
2018-10-02T00:59:20.266Z,10.56
2018-10-02T01:01:49.344Z,10.47
2018-10-02T01:04:18.461Z,10.57
2018-10-02T01:06:47.939Z,10.39
2018-10-02T01:09:17.293Z,10.45
2018-10-02T01:11:46.889Z,10.40
2018-10-02T01:14:16.206Z,10.37
2018-10-02T01:16:45.648Z,10.30
2018-10-02T01:19:14.854Z,10.23
2018-10-02T01:21:43.929Z,10.25
2018-10-02T01:24:13.523Z,10.18
2018-10-02T01:26:42.858Z,10.18
2018-10-02T01:29:12.295Z,10.32
2018-10-02T01:31:41.947Z,10.16
2018-10-02T01:34:11.123Z,10.16
2018-10-02T01:36:40.551Z,10.10
2018-10-02T01:39:10.390Z,10.03
2018-10-02T01:41:39.857Z,10.02
2018-10-02T01:44:09.450Z,10.10
2018-10-02T01:46:39.252Z,10.11
2018-10-02T01:49:08.348Z,10.12
2018-10-02T01:51:37.538Z,10.09
2018-10-02T01:54:07.418Z,10.10
2018-10-02T01:56:36.579Z,10.03
2018-10-02T01:59:05.766Z,10.00
2018-10-02T02:01:35.727Z,9.96
2018-10-02T02:04:05.832Z,9.91
2018-10-02T02:06:35.377Z,9.82
2018-10-02T02:09:06.855Z,9.88
2018-10-02T02:11:36.486Z,9.88
2018-10-02T02:14:06.116Z,9.86
2018-10-02T02:16:36.143Z,9.82
2018-10-02T02:19:05.629Z,9.83
2018-10-02T02:21:35.146Z,9.84
2018-10-02T02:24:05.510Z,9.83
2018-10-02T02:26:34.630Z,9.81
2018-10-02T02:29:04.371Z,9.83
2018-10-02T02:31:33.666Z,9.85
2018-10-02T02:34:03.543Z,9.91
2018-10-02T02:36:33.096Z,9.68
2018-10-02T02:39:02.666Z,9.66
2018-10-02T02:41:32.125Z,9.56
2018-10-02T02:44:02.747Z,9.58
2018-10-02T02:46:32.099Z,9.53
2018-10-02T02:49:06.177Z,9.58
2018-10-02T02:51:38.315Z,9.50
2018-10-02T02:54:07.762Z,9.46
2018-10-02T02:56:37.036Z,9.50
2018-10-02T02:59:06.853Z,9.49
2018-10-02T03:01:36.003Z,9.50
2018-10-02T03:04:05.911Z,9.48
2018-10-02T03:06:34.962Z,9.49
2018-10-02T03:09:04.560Z,9.47
2018-10-02T03:11:34.544Z,9.57
2018-10-02T03:14:04.607Z,9.70
2018-10-02T03:16:34.150Z,9.57
2018-10-02T03:19:03.586Z,9.52
2018-10-02T03:21:33.114Z,9.45
2018-10-02T03:24:04.480Z,9.51
2018-10-02T03:26:33.814Z,9.52
2018-10-02T03:29:08.036Z,9.55
2018-10-02T03:31:37.770Z,9.45
2018-10-02T03:34:09.299Z,9.45
2018-10-02T03:36:39.484Z,9.49
2018-10-02T03:39:10.059Z,9.49
2018-10-02T03:41:51.162Z,9.52
2018-10-02T03:44:22.386Z,9.57
2018-10-02T03:46:52.219Z,9.57
2018-10-02T03:49:21.819Z,9.61
2018-10-02T03:51:51.916Z,9.61
2018-10-02T03:54:21.556Z,9.61
2018-10-02T03:56:50.842Z,9.64
2018-10-02T03:59:20.833Z,9.62
2018-10-02T04:01:50.400Z,9.58
2018-10-02T04:04:20.114Z,9.59
2018-10-02T04:06:49.786Z,9.59
2018-10-02T04:09:21.800Z,9.56
2018-10-02T04:11:51.558Z,9.51
2018-10-02T04:14:21.172Z,9.43
2018-10-02T04:16:50.927Z,9.43
2018-10-02T04:19:21.314Z,9.49
2018-10-02T04:21:50.896Z,9.50
2018-10-02T04:24:23.434Z,9.51
2018-10-02T04:26:52.883Z,9.54
2018-10-02T04:29:22.129Z,9.55
2018-10-02T04:31:51.701Z,9.46
2018-10-02T04:34:21.115Z,9.41
2018-10-02T04:36:50.846Z,9.43
2018-10-02T04:39:50.236Z,9.29
2018-10-02T04:42:20.335Z,9.22
2018-10-02T04:44:49.761Z,9.17
2018-10-02T04:47:19.333Z,9.10
2018-10-02T04:49:49.145Z,9.03
2018-10-02T04:52:18.580Z,9.00
2018-10-02T04:54:47.837Z,8.95
2018-10-02T04:57:17.632Z,8.96
2018-10-02T04:59:47.050Z,9.01
2018-10-02T05:02:16.692Z,8.98
2018-10-02T05:04:46.182Z,9.00
2018-10-02T05:07:15.425Z,9.04
2018-10-02T05:09:44.627Z,9.05
2018-10-02T05:12:14.525Z,9.02
2018-10-02T05:14:43.826Z,9.03
2018-10-02T05:17:13.491Z,9.14
2018-10-02T05:19:43.396Z,9.10
2018-10-02T05:22:12.963Z,9.01
2018-10-02T05:24:42.984Z,9.02
2018-10-02T05:27:12.567Z,9.21
2018-10-02T05:29:42.125Z,9.07
2018-10-02T05:32:11.642Z,9.08
2018-10-02T05:34:40.920Z,9.08
2018-10-02T05:37:10.755Z,9.12
2018-10-02T05:39:40.235Z,9.12
2018-10-02T05:42:09.133Z,9.16
2018-10-02T05:44:38.522Z,9.12
2018-10-02T05:47:07.486Z,9.15
2018-10-02T05:49:36.471Z,9.18
2018-10-02T05:52:06.719Z,9.21
2018-10-02T05:54:35.656Z,9.26
2018-10-02T05:57:05.037Z,9.26
2018-10-02T05:59:34.445Z,9.27
2018-10-02T06:02:04.569Z,9.26
2018-10-02T06:04:33.513Z,9.28
2018-10-02T06:07:03.102Z,9.29
2018-10-02T06:09:32.016Z,9.27
2018-10-02T06:12:00.903Z,9.26
2018-10-02T06:14:30.270Z,9.32
2018-10-02T06:16:59.172Z,9.41
2018-10-02T06:19:28.026Z,9.34
2018-10-02T06:21:57.243Z,9.58
2018-10-02T06:24:26.178Z,9.46
2018-10-02T06:26:55.045Z,9.32
2018-10-02T06:29:24.482Z,9.48
2018-10-02T06:31:53.360Z,9.38
2018-10-02T06:34:22.250Z,9.34
2018-10-02T06:36:55.212Z,9.29
2018-10-02T06:39:24.352Z,9.37
2018-10-02T06:41:53.287Z,9.59
2018-10-02T06:44:22.334Z,9.44
2018-10-02T06:46:51.212Z,9.29
2018-10-02T06:49:20.663Z,9.36
2018-10-02T06:51:49.787Z,9.52
2018-10-02T06:54:18.666Z,9.73
2018-10-02T06:56:51.662Z,9.57
2018-10-02T06:59:25.045Z,9.52
2018-10-02T07:01:54.291Z,9.47
2018-10-02T07:04:23.148Z,9.50
2018-10-02T07:06:52.137Z,9.55
2018-10-02T07:09:21.420Z,9.66
2018-10-02T07:11:50.381Z,9.80
2018-10-02T07:14:19.265Z,9.83
2018-10-02T07:16:48.482Z,9.93
2018-10-02T07:19:17.369Z,10.16
2018-10-02T07:21:46.272Z,9.96
2018-10-02T07:24:15.675Z,9.97
2018-10-02T07:26:44.660Z,10.07
2018-10-02T07:29:13.536Z,10.25
2018-10-02T07:31:42.477Z,10.13
2018-10-02T07:34:11.369Z,10.15
2018-10-02T07:36:40.359Z,10.05
2018-10-02T07:39:09.945Z,10.13
2018-10-02T07:41:38.959Z,10.20
2018-10-02T07:44:07.831Z,10.26
2018-10-02T07:46:37.130Z,10.28
2018-10-02T07:49:06.032Z,10.62
2018-10-02T07:51:34.962Z,10.46
2018-10-02T07:54:05.041Z,10.47
2018-10-02T07:56:34.050Z,10.54
2018-10-02T07:59:03.207Z,10.57
2018-10-02T08:01:34.956Z,10.76
2018-10-02T08:04:05.070Z,10.90
2018-10-02T08:06:34.403Z,10.97
2018-10-02T08:09:05.366Z,11.03
2018-10-02T08:11:35.500Z,10.89
2018-10-02T08:14:08.351Z,11.08
2018-10-02T08:16:40.101Z,11.22
2018-10-02T08:19:11.383Z,11.30
2018-10-02T08:21:43.718Z,11.17
2018-10-02T08:24:14.966Z,11.22
2018-10-02T08:26:45.021Z,11.16
2018-10-02T08:29:17.041Z,11.09
2018-10-02T08:31:50.331Z,11.12
2018-10-02T08:34:23.615Z,11.10
2018-10-02T08:36:54.377Z,11.52
2018-10-02T08:39:28.270Z,11.58
2018-10-02T08:41:59.845Z,11.44
2018-10-02T08:44:30.654Z,11.57
2018-10-02T08:47:18.823Z,11.86
2018-10-02T08:49:52.608Z,11.68
2018-10-02T08:52:21.905Z,11.85
2018-10-02T08:54:50.860Z,11.91
2018-10-02T08:57:19.825Z,12.13
2018-10-02T08:59:49.067Z,12.00
2018-10-02T09:02:17.950Z,11.93
2018-10-02T09:04:46.854Z,12.00
2018-10-02T09:07:16.141Z,12.27
2018-10-02T09:09:45.019Z,12.28
2018-10-02T09:12:14.013Z,12.26
2018-10-02T09:15:02.623Z,12.04
2018-10-02T09:17:31.503Z,12.06
2018-10-02T09:20:00.445Z,12.16
2018-10-02T09:22:30.720Z,12.04
2018-10-02T09:24:59.648Z,12.38
2018-10-02T09:27:28.541Z,12.35
2018-10-02T09:30:03.967Z,11.88
2018-10-02T09:32:37.843Z,11.85
2018-10-02T09:35:11.993Z,12.19
2018-10-02T09:39:47.032Z,11.98
2018-10-02T09:42:21.623Z,12.41
2018-10-02T09:44:50.490Z,12.29
2018-10-02T09:47:19.469Z,12.52
2018-10-02T09:49:48.389Z,12.04
2018-10-02T09:52:18.249Z,12.30
2018-10-02T09:54:47.602Z,12.30
2018-10-02T09:57:16.568Z,12.26
2018-10-02T09:59:45.444Z,12.50
2018-10-02T10:02:19.935Z,12.84
2018-10-02T10:04:48.930Z,12.69
2018-10-02T10:07:17.814Z,12.73
2018-10-02T10:09:46.685Z,12.43
2018-10-02T10:12:15.827Z,12.53
2018-10-02T10:14:44.998Z,12.89
2018-10-02T10:17:13.961Z,12.16
2018-10-02T10:19:42.847Z,12.32
2018-10-02T10:22:11.757Z,12.74
2018-10-02T10:24:40.693Z,12.33
2018-10-02T10:27:09.894Z,12.31
2018-10-02T10:29:39.390Z,12.60
2018-10-02T10:32:08.556Z,12.20
2018-10-02T10:34:37.826Z,12.62
2018-10-02T10:37:06.866Z,12.75
2018-10-02T10:39:35.738Z,12.62
2018-10-02T10:42:05.551Z,12.72
2018-10-02T10:44:34.412Z,12.42
2018-10-02T10:47:03.430Z,12.32
2018-10-02T10:49:32.632Z,13.03
2018-10-02T10:52:01.656Z,12.71
2018-10-02T10:54:31.187Z,13.09
2018-10-02T10:57:00.082Z,13.05
2018-10-02T10:59:29.066Z,12.91
2018-10-02T11:01:58.246Z,12.97
2018-10-02T11:04:27.138Z,12.49
2018-10-02T11:06:56.437Z,13.05
2018-10-02T11:09:26.201Z,12.46
2018-10-02T11:11:55.096Z,12.84
2018-10-02T11:14:24.262Z,12.89
2018-10-02T11:16:53.137Z,12.69
2018-10-02T11:19:22.150Z,12.26
2018-10-02T11:21:51.010Z,12.40
2018-10-02T11:24:19.913Z,12.30
2018-10-02T11:26:49.239Z,12.43
2018-10-02T11:29:18.109Z,12.08
2018-10-02T11:31:47.068Z,11.99
2018-10-02T11:34:16.590Z,12.17
2018-10-02T11:36:45.513Z,12.24
2018-10-02T11:39:14.375Z,12.04
2018-10-02T11:41:43.539Z,12.20
2018-10-02T11:44:12.590Z,12.21
2018-10-02T11:46:41.421Z,12.02
2018-10-02T11:51:43.696Z,11.98
2018-10-02T11:54:13.013Z,12.13
2018-10-02T11:56:42.538Z,12.11
2018-10-02T11:59:11.557Z,12.35
2018-10-02T12:01:40.766Z,12.25
2018-10-02T12:04:10.145Z,12.24
2018-10-02T12:06:39.077Z,12.39
2018-10-02T12:09:09.107Z,11.97
2018-10-02T12:11:38.699Z,12.29
2018-10-02T12:16:47.182Z,11.95
2018-10-02T12:19:16.452Z,11.97
2018-10-02T12:21:45.646Z,12.03
2018-10-02T12:27:08.154Z,11.69
2018-10-02T12:29:37.068Z,12.02
2018-10-02T12:32:05.971Z,11.81
2018-10-02T12:34:35.344Z,11.89
2018-10-02T12:37:04.346Z,12.23
2018-10-02T12:39:33.382Z,12.36
2018-10-02T12:42:03.915Z,12.16
2018-10-02T12:44:32.821Z,12.04
2018-10-02T12:47:01.756Z,11.88
2018-10-02T12:49:31.005Z,12.02
2018-10-02T12:51:59.912Z,11.95
2018-10-02T12:54:28.778Z,11.93
2018-10-02T12:56:58.106Z,12.18
2018-10-02T12:59:27.060Z,12.10
2018-10-02T13:01:56.030Z,12.02
2018-10-02T13:04:25.466Z,12.36
2018-10-02T13:07:14.975Z,12.21
2018-10-02T13:09:59.409Z,12.36
2018-10-02T13:12:31.026Z,12.14
2018-10-02T13:15:00.243Z,12.04
2018-10-02T13:17:30.603Z,12.02
2018-10-02T13:19:59.478Z,11.72
2018-10-02T13:22:28.391Z,11.82
2018-10-02T13:24:57.807Z,11.94
2018-10-02T13:27:26.746Z,11.81
2018-10-02T13:29:55.628Z,11.68
2018-10-02T13:32:24.877Z,11.61
2018-10-02T13:34:53.836Z,11.48
2018-10-02T13:37:22.803Z,11.68
2018-10-02T13:39:52.077Z,11.46
2018-10-02T13:42:21.972Z,11.30
2018-10-02T13:44:50.906Z,11.34
2018-10-02T13:47:20.152Z,11.40
2018-10-02T13:49:49.131Z,11.51
2018-10-02T13:52:17.987Z,11.79
2018-10-02T13:54:47.199Z,11.79
2018-10-02T13:59:47.502Z,11.70
2018-10-02T14:02:17.394Z,11.64
2018-10-02T14:04:46.266Z,11.83
2018-10-02T14:07:15.173Z,11.95
2018-10-02T14:09:44.721Z,11.96
2018-10-02T14:12:13.641Z,12.01
2018-10-02T14:14:42.517Z,12.07
2018-10-02T14:17:11.697Z,12.00
2018-10-02T14:19:40.570Z,11.91
2018-10-02T14:22:09.502Z,11.96
2018-10-02T14:24:40.667Z,12.26
2018-10-02T14:27:09.700Z,11.91
2018-10-02T14:29:38.667Z,11.80
2018-10-02T14:32:08.091Z,12.03
2018-10-02T14:34:36.996Z,12.27
2018-10-02T14:37:06.125Z,11.88
2018-10-02T14:39:35.329Z,12.27
2018-10-02T14:42:05.067Z,12.33
2018-10-02T14:44:34.066Z,12.18
2018-10-02T14:47:03.482Z,12.48
2018-10-02T14:49:32.500Z,12.51
2018-10-02T14:52:02.103Z,12.32
2018-10-02T14:54:31.361Z,12.26
2018-10-02T14:57:00.385Z,12.36
2018-10-02T14:59:29.369Z,12.50
2018-10-02T15:02:03.032Z,12.31
2018-10-02T15:04:32.316Z,12.42
2018-10-02T15:07:01.381Z,12.61
2018-10-02T15:09:37.436Z,12.59
2018-10-02T15:12:07.029Z,12.70
2018-10-02T15:14:35.846Z,12.59
2018-10-02T15:17:05.069Z,12.44
2018-10-02T15:19:34.479Z,12.59
2018-10-02T15:22:06.204Z,12.50
2018-10-02T15:24:35.745Z,12.60
2018-10-02T15:27:05.386Z,12.69
2018-10-02T15:29:34.656Z,12.53
2018-10-02T15:32:04.634Z,12.24
2018-10-02T15:34:34.117Z,12.14
2018-10-02T15:37:03.588Z,12.23
2018-10-02T15:39:32.697Z,12.70
2018-10-02T15:42:03.505Z,12.36
2018-10-02T15:44:33.137Z,12.44
2018-10-02T15:47:02.826Z,12.49
2018-10-02T15:49:32.752Z,12.51
2018-10-02T15:52:03.452Z,12.61
2018-10-02T15:54:32.863Z,12.61
2018-10-02T15:57:02.887Z,12.58
2018-10-02T15:59:32.257Z,12.68
2018-10-02T16:02:02.094Z,12.56
2018-10-02T16:04:42.258Z,12.62
2018-10-02T16:07:11.560Z,12.55
2018-10-02T16:09:41.169Z,12.61
2018-10-02T16:12:10.469Z,12.47
2018-10-02T16:14:39.765Z,12.74
2018-10-02T16:17:09.588Z,12.66
2018-10-02T16:19:38.876Z,12.72
2018-10-02T16:22:08.211Z,12.83
2018-10-02T16:24:37.928Z,12.84
2018-10-02T16:27:07.487Z,12.74
2018-10-02T16:29:36.996Z,12.41
2018-10-02T16:32:06.850Z,12.58
2018-10-02T16:34:48.978Z,12.26
2018-10-02T16:37:05.478Z,12.45
2018-10-02T16:39:35.071Z,12.72
2018-10-02T16:42:05.011Z,12.51
2018-10-02T16:44:35.351Z,12.78
2018-10-02T16:47:05.302Z,12.53
2018-10-02T16:49:34.655Z,12.72
2018-10-02T16:52:05.330Z,12.75
2018-10-02T16:54:35.151Z,12.47
2018-10-02T16:57:05.844Z,12.48
2018-10-02T16:59:35.295Z,12.39
2018-10-02T17:02:05.992Z,12.77
2018-10-02T17:04:35.322Z,12.71
2018-10-02T17:07:04.603Z,12.90
2018-10-02T17:09:34.214Z,12.85
2018-10-02T17:12:04.535Z,13.04
2018-10-02T17:14:33.882Z,12.87
2018-10-02T17:17:05.602Z,12.93
2018-10-02T17:19:34.891Z,12.80
2018-10-02T17:22:04.791Z,13.00
2018-10-02T17:24:34.617Z,12.77
2018-10-02T17:27:04.244Z,12.78
2018-10-02T17:29:33.530Z,12.76
2018-10-02T17:32:04.031Z,12.67
2018-10-02T17:34:33.303Z,12.89
2018-10-02T17:37:02.821Z,12.96
2018-10-02T17:39:32.457Z,12.93
2018-10-02T17:42:02.145Z,12.85
2018-10-02T17:44:31.444Z,12.81
2018-10-02T17:47:01.146Z,12.95
2018-10-02T17:49:30.457Z,12.85
2018-10-02T17:51:59.758Z,12.98
2018-10-02T17:54:29.702Z,12.89
2018-10-02T17:56:58.989Z,12.97
2018-10-02T17:59:28.329Z,12.94
2018-10-02T18:01:58.222Z,12.88
2018-10-02T18:04:27.599Z,12.80
2018-10-02T18:06:57.488Z,12.93
2018-10-02T18:09:26.743Z,12.79
2018-10-02T18:11:56.032Z,12.89
2018-10-02T18:14:25.343Z,13.09
2018-10-02T18:16:54.683Z,12.91
2018-10-02T18:19:24.337Z,12.79
2018-10-02T18:21:54.236Z,13.02
2018-10-02T18:24:23.522Z,13.09
2018-10-02T18:26:53.254Z,13.17
2018-10-02T18:29:23.475Z,13.05
2018-10-02T18:31:53.040Z,13.14
2018-10-02T18:34:23.769Z,13.11
2018-10-02T18:36:53.182Z,13.09
2018-10-02T18:39:22.508Z,13.06
2018-10-02T18:41:52.233Z,13.21
2018-10-02T18:44:21.592Z,13.12
2018-10-02T18:46:52.076Z,13.04
2018-10-02T18:49:21.855Z,13.19
2018-10-02T18:51:51.257Z,13.15
2018-10-02T18:54:26.111Z,13.08
2018-10-02T18:56:56.770Z,13.05
2018-10-02T18:59:26.334Z,13.07
2018-10-02T19:01:55.753Z,13.17
2018-10-02T19:04:25.871Z,13.10
2018-10-02T19:06:55.571Z,13.18
2018-10-02T19:09:25.968Z,13.18
2018-10-02T19:12:01.563Z,13.07
2018-10-02T19:14:34.696Z,13.22
2018-10-02T19:17:04.672Z,13.14
2018-10-02T19:19:39.140Z,13.12
2018-10-02T19:22:10.131Z,13.14
2018-10-02T19:24:40.063Z,13.14
2018-10-02T19:27:09.390Z,13.14
2018-10-02T19:29:42.136Z,13.15
2018-10-02T19:32:13.411Z,12.94
2018-10-02T19:34:43.124Z,13.31
2018-10-02T19:37:17.484Z,13.27
2018-10-02T19:39:54.725Z,13.27
2018-10-02T19:42:24.821Z,13.22
2018-10-02T19:44:54.863Z,12.97
2018-10-02T19:47:24.709Z,13.16
2018-10-02T19:49:55.215Z,13.18
2018-10-02T19:52:24.643Z,13.01
2018-10-02T19:54:54.343Z,13.26
2018-10-02T19:57:24.066Z,12.99
2018-10-02T19:59:53.342Z,13.17
2018-10-02T20:02:22.723Z,13.15
2018-10-02T20:04:52.551Z,13.14
2018-10-02T20:07:22.021Z,13.10
2018-10-02T20:09:51.394Z,13.10
2018-10-02T20:12:21.719Z,13.05
2018-10-02T20:14:51.173Z,13.04
2018-10-02T20:17:20.524Z,12.93
2018-10-02T20:19:50.916Z,13.11
2018-10-02T20:22:20.463Z,12.95
2018-10-02T20:24:50.161Z,13.05
2018-10-02T20:27:19.971Z,12.90
2018-10-02T20:29:49.204Z,12.89
2018-10-02T20:32:18.548Z,13.11
2018-10-02T20:34:48.310Z,12.96
2018-10-02T20:37:17.609Z,12.91
2018-10-02T20:39:46.881Z,13.05
2018-10-02T20:42:16.710Z,13.01
2018-10-02T20:44:46.052Z,13.08
2018-10-02T20:47:15.384Z,13.06
2018-10-02T20:49:45.179Z,12.82
2018-10-02T20:52:14.541Z,12.97
2018-10-02T20:54:44.160Z,12.83
2018-10-02T20:57:13.908Z,12.92
2018-10-02T20:59:43.233Z,12.97
2018-10-02T21:02:12.594Z,12.88
2018-10-02T21:04:42.308Z,12.91
2018-10-02T21:07:11.628Z,12.87
2018-10-02T21:09:40.979Z,12.76
2018-10-02T21:12:10.658Z,12.83
2018-10-02T21:14:39.808Z,12.78
2018-10-02T21:17:08.770Z,12.92
2018-10-02T21:19:38.109Z,12.62
2018-10-02T21:22:07.102Z,12.67
2018-10-02T21:24:36.091Z,12.74
2018-10-02T21:27:05.322Z,12.67
2018-10-02T21:29:34.511Z,12.63
2018-10-02T21:32:04.062Z,12.77
2018-10-02T21:34:34.231Z,12.72
2018-10-02T21:37:03.476Z,12.66
2018-10-02T21:39:32.377Z,12.53
2018-10-02T21:42:02.221Z,12.59
2018-10-02T21:44:31.135Z,12.31
2018-10-02T21:47:00.503Z,12.45
2018-10-02T21:49:30.360Z,12.25
2018-10-02T21:51:59.773Z,12.52
2018-10-02T21:54:29.144Z,12.38
2018-10-02T21:56:58.978Z,12.49
2018-10-02T21:59:28.543Z,12.25
2018-10-02T22:01:58.200Z,12.36
2018-10-02T22:04:28.066Z,12.46
2018-10-02T22:06:57.630Z,12.49
2018-10-02T22:09:27.223Z,12.62
2018-10-02T22:12:59.255Z,12.36
2018-10-02T22:15:28.596Z,12.23
2018-10-02T22:17:58.173Z,12.40
2018-10-02T22:20:27.301Z,12.30
2018-10-02T22:22:56.400Z,12.34
2018-10-02T22:25:26.055Z,12.36
2018-10-02T22:27:55.230Z,12.60
2018-10-02T22:30:24.913Z,12.52
2018-10-02T22:32:54.975Z,12.40
2018-10-02T22:35:24.661Z,12.47
2018-10-02T22:37:54.201Z,12.69
2018-10-02T22:40:24.196Z,12.21
2018-10-02T22:42:53.123Z,12.26
2018-10-02T22:45:22.002Z,12.62
2018-10-02T22:47:51.317Z,12.73
2018-10-02T22:50:20.210Z,12.78
2018-10-02T22:52:49.109Z,12.72
2018-10-02T22:55:18.381Z,12.53
2018-10-02T22:57:47.235Z,12.69
2018-10-02T23:00:16.629Z,12.87
2018-10-02T23:02:45.796Z,12.72
2018-10-02T23:05:14.714Z,12.57
2018-10-02T23:07:43.561Z,12.85
2018-10-02T23:10:12.740Z,12.99
2018-10-02T23:12:41.665Z,12.78
2018-10-02T23:15:10.715Z,12.79
2018-10-02T23:17:39.949Z,12.79
2018-10-02T23:20:08.911Z,12.73
2018-10-02T23:22:37.755Z,12.75
2018-10-02T23:25:10.021Z,12.54
2018-10-02T23:27:38.964Z,12.71
2018-10-02T23:30:08.040Z,12.74
2018-10-02T23:32:37.283Z,12.59
2018-10-02T23:35:06.175Z,12.59
2018-10-02T23:37:35.052Z,12.77
2018-10-02T23:40:05.129Z,12.82
2018-10-02T23:42:34.008Z,12.65
2018-10-02T23:45:03.076Z,12.66
2018-10-02T23:47:32.379Z,12.65
2018-10-02T23:50:01.311Z,12.72
2018-10-02T23:52:30.231Z,12.72
2018-10-02T23:54:59.575Z,12.62
2018-10-02T23:57:28.462Z,12.34
2018-10-02T23:59:57.349Z,12.34
